createdAt,value
2024-04-10T00:01:16.926Z,101140.84
2024-04-10T00:03:46.924Z,101142.25
2024-04-10T00:06:16.767Z,101146.66
2024-04-10T00:08:43.975Z,101150.34
2024-04-10T00:11:13.796Z,101150.75
2024-04-10T00:13:41.101Z,101167.03
2024-04-10T00:16:11.335Z,101166.22
2024-04-10T00:18:39.539Z,101160.84
2024-04-10T00:21:11.895Z,101166.06
2024-04-10T00:23:39.199Z,101167.09
2024-04-10T00:26:09.185Z,101163.13
2024-04-10T00:28:36.483Z,101172.13
2024-04-10T00:31:10.051Z,101184.00
2024-04-10T00:33:41.145Z,101177.28
2024-04-10T00:36:14.507Z,101177.28
2024-04-10T00:38:41.679Z,101187.56
2024-04-10T00:41:11.760Z,101185.09
2024-04-10T00:43:39.264Z,101182.47
2024-04-10T00:46:12.008Z,101197.09
2024-04-10T00:48:40.086Z,101202.13
2024-04-10T00:51:11.373Z,101206.66
2024-04-10T00:53:41.642Z,101210.53
2024-04-10T00:56:12.376Z,101217.91
2024-04-10T00:58:40.145Z,101213.16
2024-04-10T01:01:10.573Z,101205.44
2024-04-10T01:05:15.051Z,101211.50
2024-04-10T01:07:44.690Z,101222.16
2024-04-10T01:10:14.430Z,101224.09
2024-04-10T01:12:45.172Z,101224.97
2024-04-10T01:15:15.532Z,101229.38
2024-04-10T01:17:42.792Z,101242.72
2024-04-10T01:20:15.881Z,101240.19
2024-04-10T01:22:43.023Z,101246.84
2024-04-10T01:25:15.348Z,101245.38
2024-04-10T01:27:42.537Z,101245.97
2024-04-10T01:30:12.584Z,101249.31
2024-04-10T01:32:40.228Z,101253.53
2024-04-10T01:35:10.211Z,101256.25
2024-04-10T01:37:38.223Z,101267.81
2024-04-10T01:40:08.836Z,101260.78
2024-04-10T01:42:38.647Z,101259.56
2024-04-10T01:45:09.016Z,101263.19
2024-04-10T01:47:36.338Z,101269.63
2024-04-10T01:50:06.642Z,101268.66
2024-04-10T01:52:34.142Z,101269.28
2024-04-10T01:55:04.426Z,101281.78
2024-04-10T01:57:32.835Z,101273.84
2024-04-10T02:00:05.134Z,101285.97
2024-04-10T02:02:38.158Z,101291.88
2024-04-10T02:05:08.331Z,101289.66
2024-04-10T02:07:35.558Z,101300.56
2024-04-10T02:10:05.360Z,101301.34
2024-04-10T02:12:32.625Z,101303.50
2024-04-10T02:15:04.998Z,101299.09
2024-04-10T02:17:32.731Z,101302.19
2024-04-10T02:20:02.955Z,101302.97
2024-04-10T02:22:30.336Z,101314.28
2024-04-10T02:25:00.138Z,101311.50
2024-04-10T02:27:27.734Z,101325.97
2024-04-10T02:29:57.428Z,101320.00
2024-04-10T02:32:27.277Z,101325.34
2024-04-10T02:34:57.141Z,101332.56
2024-04-10T02:37:25.048Z,101337.16
2024-04-10T02:39:54.904Z,101326.09
2024-04-10T02:42:22.164Z,101335.53
2024-04-10T02:44:54.667Z,101334.50
2024-04-10T02:47:21.942Z,101354.25
2024-04-10T02:49:54.665Z,101348.56
2024-04-10T02:52:22.117Z,101367.44
2024-04-10T02:54:54.570Z,101372.72
2024-04-10T02:57:21.829Z,101364.72
2024-04-10T02:59:51.541Z,101364.28
2024-04-10T03:02:18.971Z,101383.09
2024-04-10T03:04:48.828Z,101379.09
2024-04-10T03:07:18.730Z,101382.91
2024-04-10T03:09:48.585Z,101388.03
2024-04-10T03:12:15.986Z,101387.38
2024-04-10T03:14:46.392Z,101395.28
2024-04-10T03:17:14.421Z,101392.66
2024-04-10T03:19:44.350Z,101403.22
2024-04-10T03:22:11.759Z,101405.28
2024-04-10T03:24:44.174Z,101413.78
2024-04-10T03:27:11.471Z,101411.75
2024-04-10T03:29:41.926Z,101413.56
2024-04-10T03:32:09.159Z,101425.47
2024-04-10T03:34:38.891Z,101420.81
2024-04-10T03:37:06.095Z,101427.34
2024-04-10T03:39:36.022Z,101431.63
2024-04-10T03:42:06.044Z,101433.03
2024-04-10T03:44:36.738Z,101444.44
2024-04-10T03:47:09.478Z,101445.94
2024-04-10T03:49:40.107Z,101449.31
2024-04-10T03:52:10.306Z,101443.03
2024-04-10T03:54:38.550Z,101453.66
2024-04-10T03:57:13.139Z,101455.69
2024-04-10T03:59:40.490Z,101461.91
2024-04-10T04:02:10.359Z,101465.72
2024-04-10T04:04:37.771Z,101475.88
2024-04-10T04:07:07.614Z,101474.88
2024-04-10T04:09:35.015Z,101484.69
2024-04-10T04:12:05.186Z,101484.88
2024-04-10T04:14:35.545Z,101493.75
2024-04-10T04:17:05.816Z,101490.28
2024-04-10T04:19:33.314Z,101514.34
2024-04-10T04:22:03.103Z,101518.16
2024-04-10T04:24:33.245Z,101534.16
2024-04-10T04:27:01.557Z,101540.81
2024-04-10T04:29:31.409Z,101546.94
2024-04-10T04:32:01.395Z,101554.56
2024-04-10T04:34:31.372Z,101557.16
2024-04-10T04:37:00.330Z,101561.91
2024-04-10T04:39:30.463Z,101573.44
2024-04-10T04:41:58.068Z,101574.56
2024-04-10T04:44:27.972Z,101576.25
2024-04-10T04:46:56.333Z,101580.72
2024-04-10T04:49:28.834Z,101578.66
2024-04-10T04:51:56.015Z,101586.91
2024-04-10T04:54:26.580Z,101597.94
2024-04-10T04:56:53.744Z,101610.13
2024-04-10T04:59:25.159Z,101613.50
2024-04-10T05:01:55.783Z,101620.44
2024-04-10T05:04:41.756Z,101625.00
2024-04-10T05:07:14.160Z,101631.63
2024-04-10T05:09:41.487Z,101631.72
2024-04-10T05:12:11.484Z,101644.97
2024-04-10T05:14:38.747Z,101652.03
2024-04-10T05:17:08.535Z,101642.84
2024-04-10T05:19:36.588Z,101642.47
2024-04-10T05:22:06.497Z,101657.25
2024-04-10T05:24:36.290Z,101657.25
2024-04-10T05:27:08.021Z,101654.66
2024-04-10T05:29:35.316Z,101669.91
2024-04-10T05:32:05.178Z,101674.31
2024-04-10T05:34:32.368Z,101671.50
2024-04-10T05:37:02.089Z,101679.25
2024-04-10T05:39:30.121Z,101687.88
2024-04-10T05:42:08.015Z,101693.81
2024-04-10T05:44:35.237Z,101703.44
2024-04-10T05:47:05.135Z,101703.44
2024-04-10T05:49:32.350Z,101714.59
2024-04-10T05:52:02.176Z,101713.06
2024-04-10T05:54:29.319Z,101713.81
2024-04-10T05:57:01.965Z,101718.09
2024-04-10T05:59:29.224Z,101722.47
2024-04-10T06:01:59.015Z,101732.94
2024-04-10T06:04:26.191Z,101740.38
2024-04-10T06:06:55.902Z,101736.38
2024-04-10T06:09:23.049Z,101736.88
2024-04-10T06:11:53.972Z,101740.91
2024-04-10T06:14:25.897Z,101734.81
2024-04-10T06:16:55.648Z,101737.78
2024-04-10T06:19:22.847Z,101744.34
2024-04-10T06:21:52.599Z,101745.47
2024-04-10T06:24:22.332Z,101745.66
2024-04-10T06:26:52.257Z,101757.84
2024-04-10T06:29:20.883Z,101758.44
2024-04-10T06:31:53.250Z,101766.50
2024-04-10T06:34:20.780Z,101761.94
2024-04-10T06:36:50.507Z,101769.81
2024-04-10T06:39:17.704Z,101771.66
2024-04-10T06:41:47.530Z,101775.94
2024-04-10T06:44:14.780Z,101790.31
2024-04-10T06:46:44.595Z,101785.22
2024-04-10T06:49:17.363Z,101805.69
2024-04-10T06:51:47.453Z,101795.84
2024-04-10T06:54:18.587Z,101806.22
2024-04-10T06:56:50.205Z,101813.22
2024-04-10T06:59:18.025Z,101803.59
2024-04-10T07:01:48.589Z,101805.56
2024-04-10T07:04:18.742Z,101822.84
2024-04-10T07:06:50.588Z,101822.63
2024-04-10T07:09:17.922Z,101832.72
2024-04-10T07:11:47.962Z,101835.13
2024-04-10T07:14:15.314Z,101832.50
2024-04-10T07:16:45.262Z,101846.69
2024-04-10T07:19:12.526Z,101857.34
2024-04-10T07:21:45.935Z,101854.91
2024-04-10T07:24:14.323Z,101857.06
2024-04-10T07:26:44.391Z,101873.84
2024-04-10T07:29:11.671Z,101868.81
2024-04-10T07:31:42.533Z,101871.13
2024-04-10T07:34:12.365Z,101878.28
2024-04-10T07:36:46.319Z,101885.81
2024-04-10T07:39:16.229Z,101900.00
2024-04-10T07:41:50.061Z,101891.84
2024-04-10T07:44:18.086Z,101901.41
2024-04-10T07:46:49.235Z,101904.56
2024-04-10T07:49:18.894Z,101895.13
2024-04-10T07:51:51.710Z,101902.31
2024-04-10T07:54:18.917Z,101894.59
2024-04-10T07:56:48.911Z,101904.16
2024-04-10T07:59:16.163Z,101891.63
2024-04-10T08:01:46.251Z,101898.22
2024-04-10T08:04:13.532Z,101900.66
2024-04-10T08:06:43.333Z,101912.34
2024-04-10T08:09:13.309Z,101908.94
2024-04-10T08:11:45.606Z,101914.16
2024-04-10T08:14:13.468Z,101910.59
2024-04-10T08:16:43.398Z,101925.94
2024-04-10T08:19:10.643Z,101932.56
2024-04-10T08:21:40.693Z,101934.81
2024-04-10T08:24:08.398Z,101935.69
2024-04-10T08:26:42.039Z,101946.75
2024-04-10T08:29:10.667Z,101955.50
2024-04-10T08:31:40.719Z,101947.81
2024-04-10T08:34:09.910Z,101949.41
2024-04-10T08:36:40.598Z,101951.00
2024-04-10T08:39:07.895Z,101961.97
2024-04-10T08:41:37.891Z,101958.03
2024-04-10T08:44:07.836Z,101968.38
2024-04-10T08:46:39.162Z,101981.50
2024-04-10T08:49:07.559Z,101986.56
2024-04-10T08:51:37.830Z,101995.22
2024-04-10T08:54:07.619Z,102000.19
2024-04-10T08:56:37.380Z,102000.84
2024-04-10T08:59:07.144Z,101999.25
2024-04-10T09:01:38.760Z,102002.06
2024-04-10T09:04:10.292Z,102003.66
2024-04-10T09:06:41.615Z,102001.31
2024-04-10T09:09:10.077Z,102006.59
2024-04-10T09:11:41.491Z,102009.50
2024-04-10T09:14:13.044Z,102002.72
2024-04-10T09:16:43.886Z,102012.16
2024-04-10T09:19:11.837Z,102010.50
2024-04-10T09:21:41.917Z,102012.53
2024-04-10T09:24:10.313Z,102012.31
2024-04-10T09:26:42.946Z,102014.13
2024-04-10T09:29:14.642Z,102012.72
2024-04-10T09:31:47.972Z,102021.72
2024-04-10T09:34:21.053Z,102025.50
2024-04-10T09:36:51.488Z,102028.22
2024-04-10T09:39:24.100Z,102021.59
2024-04-10T09:42:00.191Z,102026.66
2024-04-10T09:44:32.564Z,102041.84
2024-04-10T09:47:04.235Z,102049.50
2024-04-10T09:49:42.645Z,102054.00
2024-04-10T09:52:13.891Z,102044.97
2024-04-10T09:54:41.711Z,102044.53
2024-04-10T09:57:13.279Z,102039.97
2024-04-10T09:59:46.716Z,102045.19
2024-04-10T10:02:20.663Z,102047.59
2024-04-10T10:04:48.749Z,102045.34
2024-04-10T10:07:23.731Z,102038.44
2024-04-10T10:09:51.552Z,102041.19
2024-04-10T10:12:28.157Z,102044.97
2024-04-10T10:15:06.968Z,102035.09
2024-04-10T10:17:49.898Z,102041.13
2024-04-10T10:20:25.017Z,102045.22
2024-04-10T10:23:02.879Z,102051.13
2024-04-10T10:25:30.578Z,102052.56
2024-04-10T10:28:10.766Z,102056.63
2024-04-10T10:30:43.736Z,102052.72
2024-04-10T10:33:15.965Z,102054.00
2024-04-10T10:35:43.295Z,102055.22
2024-04-10T10:38:14.273Z,102061.84
2024-04-10T10:40:41.517Z,102063.13
2024-04-10T10:43:12.935Z,102065.59
2024-04-10T10:45:42.715Z,102064.28
2024-04-10T10:48:18.846Z,102062.06
2024-04-10T10:50:54.999Z,102072.13
2024-04-10T10:53:25.614Z,102080.84
2024-04-10T10:55:53.321Z,102078.56
2024-04-10T10:58:23.122Z,102076.34
2024-04-10T11:00:53.708Z,102069.59
2024-04-10T11:03:30.073Z,102070.63
2024-04-10T11:06:07.906Z,102074.09
2024-04-10T11:08:38.263Z,102078.41
2024-04-10T11:11:08.535Z,102071.78
2024-04-10T11:13:39.798Z,102074.84
2024-04-10T11:16:09.699Z,102077.06
2024-04-10T11:18:39.675Z,102077.66
2024-04-10T11:21:07.061Z,102080.03
2024-04-10T11:23:37.998Z,102082.84
2024-04-10T11:26:05.779Z,102076.00
2024-04-10T11:28:35.550Z,102089.91
2024-04-10T11:31:02.784Z,102081.09
2024-04-10T11:33:35.369Z,102092.34
2024-04-10T11:36:02.964Z,102091.00
2024-04-10T11:38:32.968Z,102098.13
2024-04-10T11:41:03.198Z,102104.84
2024-04-10T11:43:33.715Z,102108.09
2024-04-10T11:46:01.038Z,102101.41
2024-04-10T11:48:30.923Z,102108.38
2024-04-10T11:51:00.890Z,102108.22
2024-04-10T11:53:32.101Z,102110.97
2024-04-10T11:55:59.287Z,102111.16
2024-04-10T11:58:29.027Z,102101.09
2024-04-10T12:00:56.273Z,102118.03
2024-04-10T12:03:26.518Z,102113.81
2024-04-10T12:05:53.935Z,102112.16
2024-04-10T12:08:27.390Z,102110.72
2024-04-10T12:10:54.790Z,102111.63
2024-04-10T12:13:24.867Z,102119.47
2024-04-10T12:15:52.192Z,102125.31
2024-04-10T12:18:22.068Z,102128.25
2024-04-10T12:20:49.813Z,102120.44
2024-04-10T12:23:19.754Z,102119.75
2024-04-10T12:25:50.694Z,102109.34
2024-04-10T12:28:20.442Z,102107.59
2024-04-10T12:30:49.860Z,102107.06
2024-04-10T12:33:20.326Z,102104.25
2024-04-10T12:36:06.680Z,102100.75
2024-04-10T12:38:36.955Z,102107.25
2024-04-10T12:41:09.796Z,102114.41
2024-04-10T12:43:43.269Z,102111.09
2024-04-10T12:46:11.509Z,102114.06
2024-04-10T12:48:41.547Z,102105.16
2024-04-10T12:51:08.777Z,102112.34
2024-04-10T12:53:38.591Z,102108.97
2024-04-10T12:56:09.208Z,102115.09
2024-04-10T12:58:38.987Z,102118.47
2024-04-10T13:01:06.782Z,102123.75
2024-04-10T13:03:37.642Z,102120.16
2024-04-10T13:06:06.158Z,102125.66
2024-04-10T13:08:36.013Z,102118.03
2024-04-10T13:11:11.587Z,102126.94
2024-04-10T13:13:41.558Z,102128.19
2024-04-10T13:16:08.903Z,102131.75
2024-04-10T13:18:39.095Z,102134.47
2024-04-10T13:21:07.005Z,102141.00
2024-04-10T13:23:38.614Z,102150.25
2024-04-10T13:26:10.673Z,102158.69
2024-04-10T13:28:42.067Z,102150.50
2024-04-10T13:31:12.204Z,102162.09
2024-04-10T13:33:44.476Z,102153.00
2024-04-10T13:36:13.938Z,102158.09
2024-04-10T13:38:45.642Z,102150.50
2024-04-10T13:41:16.471Z,102156.84
2024-04-10T13:43:47.871Z,102161.06
2024-04-10T13:46:15.312Z,102158.72
2024-04-10T13:48:46.541Z,102166.09
2024-04-10T13:51:18.128Z,102171.78
2024-04-10T13:53:48.227Z,102173.81
2024-04-10T13:56:18.323Z,102176.75
2024-04-10T13:58:48.578Z,102173.63
2024-04-10T14:01:17.345Z,102172.94
2024-04-10T14:03:49.584Z,102172.69
2024-04-10T14:06:17.616Z,102186.56
2024-04-10T14:08:48.787Z,102184.47
2024-04-10T14:11:18.887Z,102189.03
2024-04-10T14:13:48.840Z,102186.59
2024-04-10T14:16:16.346Z,102182.41
2024-04-10T14:18:46.244Z,102181.41
2024-04-10T14:21:14.401Z,102179.91
2024-04-10T14:23:45.746Z,102177.84
2024-04-10T14:26:13.411Z,102179.03
2024-04-10T14:28:47.694Z,102190.75
2024-04-10T14:31:15.008Z,102191.88
2024-04-10T14:33:46.779Z,102200.63
2024-04-10T14:36:14.864Z,102186.97
2024-04-10T14:38:45.209Z,102199.84
2024-04-10T14:41:12.354Z,102200.78
2024-04-10T14:43:42.362Z,102203.28
2024-04-10T14:46:16.044Z,102205.53
2024-04-10T14:48:48.124Z,102207.84
2024-04-10T14:51:15.496Z,102211.59
2024-04-10T14:53:45.420Z,102212.34
2024-04-10T14:56:14.806Z,102213.53
2024-04-10T14:58:45.074Z,102208.06
2024-04-10T15:01:19.043Z,102210.16
2024-04-10T15:03:50.171Z,102205.72
2024-04-10T15:06:19.273Z,102211.47
2024-04-10T15:08:51.417Z,102215.63
2024-04-10T15:11:24.116Z,102215.88
2024-04-10T15:13:54.727Z,102224.84
2024-04-10T15:16:24.784Z,102220.94
2024-04-10T15:18:57.320Z,102220.88
2024-04-10T15:21:26.412Z,102222.03
2024-04-10T15:23:56.289Z,102229.19
2024-04-10T15:26:23.513Z,102223.53
2024-04-10T15:28:53.611Z,102222.50
2024-04-10T15:31:20.859Z,102220.81
2024-04-10T15:33:53.286Z,102224.97
2024-04-10T15:36:20.836Z,102222.50
2024-04-10T15:38:53.276Z,102219.53
2024-04-10T15:41:20.932Z,102229.53
2024-04-10T15:43:51.965Z,102226.88
2024-04-10T15:46:19.853Z,102235.78
2024-04-10T15:48:50.144Z,102221.56
2024-04-10T15:51:21.138Z,102228.28
2024-04-10T15:53:51.143Z,102224.59
2024-04-10T15:56:18.724Z,102226.59
2024-04-10T15:58:48.638Z,102223.19
2024-04-10T16:01:16.224Z,102218.50
2024-04-10T16:03:47.769Z,102217.38
2024-04-10T16:06:16.738Z,102221.34
2024-04-10T16:08:49.855Z,102216.25
2024-04-10T16:11:19.277Z,102218.97
2024-04-10T16:13:50.566Z,102222.50
2024-04-10T16:16:20.287Z,102221.84
2024-04-10T16:18:52.010Z,102226.00
2024-04-10T16:21:21.214Z,102231.19
2024-04-10T16:23:54.998Z,102232.06
2024-04-10T16:26:25.506Z,102236.00
2024-04-10T16:28:55.758Z,102231.44
2024-04-10T16:31:22.915Z,102237.16
2024-04-10T16:33:54.928Z,102231.59
2024-04-10T16:36:22.753Z,102232.25
2024-04-10T16:38:55.453Z,102240.84
2024-04-10T16:41:22.800Z,102234.53
2024-04-10T16:43:53.109Z,102241.13
2024-04-10T16:46:20.450Z,102255.84
2024-04-10T16:48:50.403Z,102256.84
2024-04-10T16:51:17.954Z,102245.94
2024-04-10T16:53:49.042Z,102249.44
2024-04-10T16:56:20.770Z,102252.53
2024-04-10T16:58:51.207Z,102250.44
2024-04-10T17:01:18.532Z,102249.16
2024-04-10T17:03:49.428Z,102247.44
2024-04-10T17:06:16.925Z,102252.25
2024-04-10T17:08:46.786Z,102257.81
2024-04-10T17:11:15.139Z,102264.13
2024-04-10T17:13:48.334Z,102263.28
2024-04-10T17:16:15.806Z,102259.22
2024-04-10T17:19:02.062Z,102258.19
2024-04-10T17:21:52.884Z,102251.03
2024-04-10T17:24:23.029Z,102257.06
2024-04-10T17:26:53.378Z,102265.16
2024-04-10T17:29:24.964Z,102249.63
2024-04-10T17:31:56.195Z,102269.28
2024-04-10T17:34:23.936Z,102261.59
2024-04-10T17:36:54.098Z,102273.31
2024-04-10T17:39:25.498Z,102278.69
2024-04-10T17:41:55.944Z,102272.09
2024-04-10T17:44:26.012Z,102278.59
2024-04-10T17:46:56.114Z,102278.59
2024-04-10T17:49:23.466Z,102282.03
2024-04-10T17:51:53.399Z,102282.41
2024-04-10T17:54:20.808Z,102276.84
2024-04-10T17:56:50.656Z,102286.22
2024-04-10T17:59:17.861Z,102284.16
2024-04-10T18:01:52.807Z,102286.88
2024-04-10T18:04:20.429Z,102285.22
2024-04-10T18:06:50.292Z,102294.41
2024-04-10T18:09:17.625Z,102283.84
2024-04-10T18:11:47.660Z,102294.31
2024-04-10T18:14:14.951Z,102289.03
2024-04-10T18:16:44.981Z,102290.25
2024-04-10T18:19:15.129Z,102297.56
2024-04-10T18:21:44.938Z,102303.19
2024-04-10T18:24:12.344Z,102303.38
2024-04-10T18:26:42.558Z,102307.13
2024-04-10T18:29:13.151Z,102305.44
2024-04-10T18:31:43.465Z,102308.16
2024-04-10T18:34:10.920Z,102320.47
2024-04-10T18:36:43.523Z,102327.97
2024-04-10T18:39:10.827Z,102333.44
2024-04-10T18:41:41.132Z,102334.63
2024-04-10T18:44:08.957Z,102336.50
2024-04-10T18:46:39.180Z,102347.38
2024-04-10T18:49:06.617Z,102344.19
2024-04-10T18:51:36.623Z,102349.66
2024-04-10T18:54:07.048Z,102355.63
2024-04-10T18:56:37.550Z,102351.38
2024-04-10T18:59:04.900Z,102355.31
2024-04-10T19:01:35.616Z,102349.22
2024-04-10T19:04:03.037Z,102365.56
2024-04-10T19:06:33.447Z,102357.72
2024-04-10T19:09:01.675Z,102361.00
2024-04-10T19:11:37.945Z,102364.56
2024-04-10T19:14:05.570Z,102364.06
2024-04-10T19:16:35.641Z,102375.84
2024-04-10T19:19:03.298Z,102373.44
2024-04-10T19:21:33.003Z,102374.19
2024-04-10T19:24:00.414Z,102372.34
2024-04-10T19:26:30.352Z,102370.81
2024-04-10T19:29:00.109Z,102378.63
2024-04-10T19:31:29.859Z,102374.31
2024-04-10T19:33:57.555Z,102371.91
2024-04-10T19:36:27.479Z,102374.19
2024-04-10T19:38:57.905Z,102373.72
2024-04-10T19:41:25.282Z,102373.47
2024-04-10T19:43:54.985Z,102374.34
2024-04-10T19:46:24.794Z,102381.66
2024-04-10T19:48:54.844Z,102372.34
2024-04-10T19:51:23.318Z,102376.09
2024-04-10T19:53:53.393Z,102383.41
2024-04-10T19:56:20.656Z,102384.75
2024-04-10T19:58:50.743Z,102377.44
2024-04-10T20:01:18.275Z,102376.94
2024-04-10T20:03:51.130Z,102382.72
2024-04-10T20:06:19.061Z,102382.53
2024-04-10T20:08:50.056Z,102380.88
2024-04-10T20:11:17.660Z,102375.44
2024-04-10T20:13:49.916Z,102371.34
2024-04-10T20:16:20.640Z,102370.00
2024-04-10T20:18:53.658Z,102382.41
2024-04-10T20:21:22.071Z,102384.75
2024-04-10T20:23:52.634Z,102385.28
2024-04-10T20:26:20.341Z,102374.41
2024-04-10T20:28:50.797Z,102374.25
2024-04-10T20:31:18.194Z,102377.16
2024-04-10T20:33:52.313Z,102375.63
2024-04-10T20:36:22.459Z,102376.13
2024-04-10T20:38:52.494Z,102375.81
2024-04-10T20:41:20.059Z,102378.19
2024-04-10T20:43:50.303Z,102380.75
2024-04-10T20:46:18.099Z,102369.63
2024-04-10T20:48:50.662Z,102370.81
2024-04-10T20:51:19.304Z,102364.53
2024-04-10T20:53:52.334Z,102359.09
2024-04-10T20:56:21.595Z,102355.00
2024-04-10T20:58:52.994Z,102361.69
2024-04-10T21:01:21.239Z,102368.69
2024-04-10T21:03:56.213Z,102370.72
2024-04-10T21:06:24.793Z,102366.13
2024-04-10T21:09:13.165Z,102368.38
2024-04-10T21:11:58.658Z,102355.44
2024-04-10T21:14:44.857Z,102369.34
2024-04-10T21:17:31.036Z,102366.47
2024-04-10T21:20:17.233Z,102377.19
2024-04-10T21:23:03.313Z,102365.97
2024-04-10T21:25:52.592Z,102378.03
2024-04-10T21:28:39.058Z,102379.91
2024-04-10T21:31:26.001Z,102388.06
2024-04-10T21:34:12.700Z,102385.00
2024-04-10T21:36:58.682Z,102373.78
2024-04-10T21:39:45.178Z,102380.28
2024-04-10T21:42:33.666Z,102377.38
2024-04-10T21:45:19.536Z,102388.56
2024-04-10T21:48:05.819Z,102391.97
2024-04-10T21:50:52.328Z,102382.28
2024-04-10T21:53:38.440Z,102385.38
2024-04-10T21:56:25.595Z,102381.44
2024-04-10T21:59:15.796Z,102379.06
2024-04-10T22:02:06.594Z,102382.97
2024-04-10T22:04:57.877Z,102380.25
2024-04-10T22:07:45.607Z,102372.66
2024-04-10T22:10:15.514Z,102375.50
2024-04-10T22:12:45.361Z,102374.66
2024-04-10T22:15:19.547Z,102381.28
2024-04-10T22:18:08.094Z,102379.44
2024-04-10T22:20:55.095Z,102374.31
2024-04-10T22:23:40.966Z,102382.81
2024-04-10T22:26:12.093Z,102390.28
2024-04-10T22:28:45.006Z,102390.97
2024-04-10T22:31:17.449Z,102388.41
2024-04-10T22:33:44.955Z,102388.41
2024-04-10T22:36:15.043Z,102386.91
2024-04-10T22:38:42.238Z,102383.16
2024-04-10T22:41:12.003Z,102391.81
2024-04-10T22:43:41.367Z,102391.28
2024-04-10T22:46:11.332Z,102382.13
2024-04-10T22:48:41.326Z,102379.91
2024-04-10T22:51:11.944Z,102382.44
2024-04-10T22:53:39.261Z,102377.88
2024-04-10T22:56:09.318Z,102378.72
2024-04-10T22:58:36.544Z,102381.78
2024-04-10T23:01:06.603Z,102382.63
2024-04-10T23:03:35.416Z,102382.25
2024-04-10T23:06:10.295Z,102380.56
2024-04-10T23:08:37.746Z,102366.66
2024-04-10T23:11:07.681Z,102380.38
2024-04-10T23:13:35.024Z,102382.25
2024-04-10T23:16:04.956Z,102381.25
2024-04-10T23:18:44.467Z,102378.72
2024-04-10T23:21:26.521Z,102380.03
2024-04-10T23:23:53.738Z,102381.06
2024-04-10T23:26:23.657Z,102380.19
2024-04-10T23:28:50.909Z,102369.00
2024-04-10T23:31:22.543Z,102368.16
2024-04-10T23:33:49.996Z,102370.03
2024-04-10T23:36:20.106Z,102367.94
2024-04-10T23:38:50.519Z,102370.66
2024-04-10T23:41:20.478Z,102365.22
2024-04-10T23:43:47.841Z,102360.19
2024-04-10T23:46:17.607Z,102359.78
2024-04-10T23:48:44.887Z,102364.38
2024-04-10T23:51:14.962Z,102362.69
2024-04-10T23:53:43.344Z,102357.06
2024-04-10T23:56:15.698Z,102359.97
2024-04-10T23:58:43.313Z,102358.09
